createdAt,value
2022-09-29T00:00:51.175Z,12.43
2022-09-29T00:03:18.199Z,13.13
2022-09-29T00:05:48.163Z,12.67
2022-09-29T00:08:15.476Z,12.57
2022-09-29T00:10:41.885Z,12.77
2022-09-29T00:13:08.214Z,12.53
2022-09-29T00:15:34.534Z,12.73
2022-09-29T00:18:13.687Z,13.17
2022-09-29T00:20:40.754Z,11.67
2022-09-29T00:23:07.082Z,12.30
2022-09-29T00:25:33.510Z,13.63
2022-09-29T00:27:59.833Z,12.20
2022-09-29T00:30:26.304Z,12.60
2022-09-29T00:32:52.645Z,12.93
2022-09-29T00:35:19.059Z,12.27
2022-09-29T00:37:45.473Z,13.43
2022-09-29T00:40:12.012Z,12.37
2022-09-29T00:42:38.331Z,11.27
2022-09-29T00:45:12.555Z,11.93
2022-09-29T00:47:42.909Z,11.03
2022-09-29T00:50:09.233Z,11.53
2022-09-29T00:52:43.955Z,12.60
2022-09-29T00:55:13.851Z,11.90
2022-09-29T00:57:46.688Z,12.07
2022-09-29T01:00:13.960Z,11.77
2022-09-29T01:02:42.287Z,11.53
2022-09-29T01:05:12.665Z,11.30
2022-09-29T01:07:39.320Z,12.03
2022-09-29T01:10:06.645Z,11.17
2022-09-29T01:12:33.189Z,11.73
2022-09-29T01:14:59.694Z,11.03
2022-09-29T01:17:26.240Z,11.17
2022-09-29T01:20:05.187Z,11.97
2022-09-29T01:22:37.595Z,10.43
2022-09-29T01:25:19.189Z,11.60
2022-09-29T01:28:05.231Z,10.57
2022-09-29T01:30:49.913Z,10.50
2022-09-29T01:33:19.585Z,10.53
2022-09-29T01:35:50.333Z,11.17
2022-09-29T01:38:16.672Z,10.47
2022-09-29T01:40:46.166Z,11.43
2022-09-29T01:43:25.646Z,11.57
2022-09-29T01:45:58.129Z,11.03
2022-09-29T01:48:26.784Z,10.90
2022-09-29T01:50:56.271Z,10.50
2022-09-29T01:53:33.241Z,10.33
2022-09-29T01:56:02.615Z,11.30
2022-09-29T01:58:41.170Z,10.50
2022-09-29T02:01:10.771Z,10.27
2022-09-29T02:03:57.999Z,9.93
2022-09-29T02:06:27.063Z,10.70
2022-09-29T02:08:54.909Z,10.20
2022-09-29T02:11:21.479Z,10.80
2022-09-29T02:14:04.031Z,10.33
2022-09-29T02:16:31.556Z,9.57
2022-09-29T02:19:10.614Z,10.67
2022-09-29T02:21:39.939Z,10.17
2022-09-29T02:24:06.349Z,10.40
2022-09-29T02:26:37.212Z,10.03
2022-09-29T02:29:04.230Z,9.30
2022-09-29T02:31:31.754Z,11.10
2022-09-29T02:33:58.295Z,9.53
2022-09-29T02:36:31.134Z,10.13
2022-09-29T02:39:17.720Z,10.27
2022-09-29T02:41:53.163Z,9.87
2022-09-29T02:44:28.685Z,9.80
2022-09-29T02:47:07.677Z,10.60
2022-09-29T02:49:43.127Z,9.80
2022-09-29T02:52:28.199Z,9.97
2022-09-29T02:55:00.661Z,9.87
2022-09-29T02:57:31.932Z,9.50
2022-09-29T03:00:08.331Z,9.07
2022-09-29T03:02:35.459Z,9.03
2022-09-29T03:05:02.962Z,9.50
2022-09-29T03:07:29.346Z,9.37
2022-09-29T03:09:55.677Z,10.27
2022-09-29T03:12:22.045Z,9.47
2022-09-29T03:14:48.354Z,9.27
2022-09-29T03:17:14.722Z,8.90
2022-09-29T03:19:41.206Z,9.80
2022-09-29T03:22:07.549Z,8.93
2022-09-29T03:24:34.206Z,10.00
2022-09-29T03:27:00.583Z,8.07
2022-09-29T03:29:27.034Z,10.00
2022-09-29T03:31:53.446Z,10.00
2022-09-29T03:34:19.811Z,8.83
2022-09-29T03:36:46.160Z,8.90
2022-09-29T03:39:12.520Z,9.87
2022-09-29T03:41:38.867Z,9.37
2022-09-29T03:44:05.178Z,8.20
2022-09-29T03:46:31.566Z,8.80
2022-09-29T03:48:58.059Z,9.63
2022-09-29T03:51:24.538Z,9.07
2022-09-29T03:53:50.871Z,10.33
2022-09-29T03:56:17.242Z,13.50
2022-09-29T03:58:43.707Z,11.07
2022-09-29T04:01:10.237Z,10.53
2022-09-29T04:03:36.621Z,9.20
2022-09-29T04:06:03.049Z,9.07
2022-09-29T04:08:29.460Z,8.67
2022-09-29T04:10:55.863Z,8.40
2022-09-29T04:13:22.253Z,8.13
2022-09-29T04:15:49.630Z,8.90
2022-09-29T04:18:16.357Z,9.50
2022-09-29T04:20:42.661Z,8.53
2022-09-29T04:23:09.001Z,9.73
2022-09-29T04:25:35.312Z,9.93
2022-09-29T04:28:01.755Z,8.47
2022-09-29T04:30:28.105Z,8.20
2022-09-29T04:32:54.446Z,7.87
2022-09-29T04:35:20.788Z,9.03
2022-09-29T04:37:47.107Z,8.87
2022-09-29T04:40:13.532Z,9.03
2022-09-29T04:42:39.941Z,9.10
2022-09-29T04:45:06.518Z,8.33
2022-09-29T04:47:32.847Z,8.77
2022-09-29T04:49:59.170Z,8.67
2022-09-29T04:52:25.487Z,9.07
2022-09-29T04:54:52.114Z,9.23
2022-09-29T04:57:18.447Z,9.20
2022-09-29T04:59:44.784Z,10.27
2022-09-29T05:02:11.193Z,8.13
2022-09-29T05:04:37.602Z,8.67
2022-09-29T05:07:03.991Z,9.27
2022-09-29T05:09:33.524Z,9.57
2022-09-29T05:12:00.534Z,8.97
2022-09-29T05:14:26.994Z,9.27
2022-09-29T05:16:56.162Z,10.13
2022-09-29T05:19:22.507Z,9.73
2022-09-29T05:21:48.887Z,8.37
2022-09-29T05:24:15.211Z,8.70
2022-09-29T05:26:41.572Z,9.27
2022-09-29T05:29:07.977Z,9.37
2022-09-29T05:31:34.398Z,9.37
2022-09-29T05:34:00.788Z,9.87
2022-09-29T05:36:27.197Z,9.57
2022-09-29T05:38:53.538Z,9.17
2022-09-29T05:41:23.328Z,8.83
2022-09-29T05:43:50.233Z,9.47
2022-09-29T05:46:19.655Z,8.87
2022-09-29T05:48:46.577Z,10.00
2022-09-29T05:51:14.090Z,9.57
2022-09-29T05:53:40.879Z,10.23
2022-09-29T05:56:08.145Z,9.47
2022-09-29T05:58:34.713Z,9.90
2022-09-29T06:01:05.059Z,10.20
2022-09-29T06:03:32.555Z,9.90
2022-09-29T06:05:58.907Z,9.00
2022-09-29T06:08:25.347Z,9.93
2022-09-29T06:10:51.687Z,10.53
2022-09-29T06:13:18.183Z,11.13
2022-09-29T06:15:44.526Z,10.00
2022-09-29T06:18:10.840Z,10.17
2022-09-29T06:20:40.229Z,11.07
2022-09-29T06:23:06.685Z,10.83
2022-09-29T06:25:33.159Z,10.40
2022-09-29T06:27:59.517Z,11.33
2022-09-29T06:30:25.853Z,10.47
2022-09-29T06:32:52.369Z,11.73
2022-09-29T06:35:37.304Z,12.27
2022-09-29T06:38:03.962Z,11.10
2022-09-29T06:40:30.403Z,11.00
2022-09-29T06:42:56.760Z,11.47
2022-09-29T06:45:23.181Z,11.87
2022-09-29T06:47:49.560Z,11.07
2022-09-29T06:50:16.825Z,10.93
2022-09-29T06:52:47.219Z,12.03
2022-09-29T06:55:19.203Z,12.17
2022-09-29T06:57:45.758Z,11.90
2022-09-29T07:00:12.217Z,12.27
2022-09-29T07:02:38.531Z,13.23
2022-09-29T07:05:05.103Z,12.53
2022-09-29T07:07:31.438Z,12.77
2022-09-29T07:09:57.847Z,14.53
2022-09-29T07:12:24.596Z,13.73
2022-09-29T07:14:50.912Z,13.90
2022-09-29T07:17:17.737Z,13.53
2022-09-29T07:19:44.070Z,14.73
2022-09-29T07:22:10.384Z,16.07
2022-09-29T07:24:36.825Z,14.97
2022-09-29T07:27:03.184Z,15.20
2022-09-29T07:29:32.987Z,14.33
2022-09-29T07:31:59.811Z,15.80
2022-09-29T07:34:26.191Z,14.53
2022-09-29T07:36:52.517Z,13.93
2022-09-29T07:39:20.167Z,13.17
2022-09-29T07:41:46.623Z,12.93
2022-09-29T07:44:13.070Z,12.53
2022-09-29T07:46:39.496Z,12.97
2022-09-29T07:49:05.824Z,12.47
2022-09-29T07:51:32.499Z,11.73
2022-09-29T07:54:02.839Z,11.60
2022-09-29T07:56:29.202Z,11.77
2022-09-29T07:58:56.278Z,11.67
2022-09-29T08:01:22.776Z,11.23
2022-09-29T08:03:50.716Z,11.27
2022-09-29T08:06:17.348Z,11.30
2022-09-29T08:08:56.713Z,12.00
2022-09-29T08:11:31.944Z,11.30
2022-09-29T08:13:59.287Z,11.87
2022-09-29T08:16:26.056Z,11.20
2022-09-29T08:18:52.504Z,12.43
2022-09-29T08:21:18.879Z,11.87
2022-09-29T08:23:45.279Z,12.37
2022-09-29T08:26:14.194Z,12.63
2022-09-29T08:28:40.586Z,12.27
2022-09-29T08:31:11.499Z,12.63
2022-09-29T08:33:38.167Z,11.93
2022-09-29T08:36:06.297Z,11.57
2022-09-29T08:38:32.821Z,11.73
2022-09-29T08:41:04.471Z,10.80
2022-09-29T08:43:38.397Z,11.40
2022-09-29T08:46:11.702Z,11.50
2022-09-29T08:48:54.237Z,9.80
2022-09-29T08:51:40.517Z,9.63
2022-09-29T08:54:22.308Z,11.00
2022-09-29T08:56:56.172Z,9.80
2022-09-29T08:59:25.334Z,10.43
2022-09-29T09:01:54.761Z,11.17
2022-09-29T09:04:39.570Z,10.40
2022-09-29T09:07:06.083Z,10.20
2022-09-29T09:09:38.446Z,10.53
2022-09-29T09:12:12.585Z,10.40
2022-09-29T09:14:49.126Z,10.03
2022-09-29T09:17:16.232Z,9.30
2022-09-29T09:19:49.219Z,9.90
2022-09-29T09:22:18.584Z,10.67
2022-09-29T09:24:52.430Z,9.53
2022-09-29T09:27:23.078Z,9.53
2022-09-29T09:29:50.793Z,9.60
2022-09-29T09:32:22.850Z,9.60
2022-09-29T09:34:49.294Z,9.37
2022-09-29T09:37:15.642Z,9.23
2022-09-29T09:40:01.250Z,11.07
2022-09-29T09:42:30.465Z,10.10
2022-09-29T09:45:02.841Z,10.40
2022-09-29T09:47:31.280Z,10.23
2022-09-29T09:49:59.940Z,10.17
2022-09-29T09:52:29.112Z,10.73
2022-09-29T09:54:58.601Z,10.87
2022-09-29T09:57:30.366Z,10.60
2022-09-29T10:00:00.261Z,10.47
2022-09-29T10:02:26.681Z,10.77
2022-09-29T10:04:53.942Z,11.23
2022-09-29T10:07:21.272Z,12.03
2022-09-29T10:09:47.894Z,11.87
2022-09-29T10:12:18.343Z,11.30
2022-09-29T10:14:48.161Z,10.63
2022-09-29T10:17:16.192Z,10.67
2022-09-29T10:19:52.958Z,9.60
2022-09-29T10:24:47.036Z,9.30
2022-09-29T10:27:18.790Z,8.10
2022-09-29T10:29:49.562Z,9.07
2022-09-29T10:32:25.695Z,8.47
2022-09-29T10:34:54.954Z,9.33
2022-09-29T10:37:28.425Z,8.73
2022-09-29T10:40:13.178Z,8.73
2022-09-29T10:42:40.769Z,8.80
2022-09-29T10:45:14.398Z,8.20
2022-09-29T10:48:01.028Z,8.23
2022-09-29T10:50:35.011Z,8.23
2022-09-29T10:53:07.960Z,7.83
2022-09-29T10:55:47.535Z,7.60
2022-09-29T10:58:44.220Z,7.50
2022-09-29T11:01:19.138Z,7.73
2022-09-29T11:04:01.414Z,8.00
2022-09-29T11:06:29.033Z,8.03
2022-09-29T11:08:57.247Z,7.77
2022-09-29T11:11:31.334Z,7.27
2022-09-29T11:13:59.369Z,7.20
2022-09-29T11:16:30.567Z,5.97
2022-09-29T11:19:08.479Z,6.67
2022-09-29T11:21:53.594Z,6.67
2022-09-29T11:24:35.464Z,7.03
2022-09-29T11:27:12.570Z,7.40
2022-09-29T11:29:41.639Z,7.60
2022-09-29T11:32:11.459Z,18.83
2022-09-29T11:34:55.861Z,8.80
2022-09-29T11:37:25.269Z,8.33
2022-09-29T11:40:11.219Z,7.47
2022-09-29T11:43:03.875Z,7.83
2022-09-29T11:45:36.352Z,8.07
2022-09-29T11:48:02.709Z,8.23
2022-09-29T11:50:40.603Z,8.03
2022-09-29T11:53:19.199Z,9.23
2022-09-29T11:55:51.771Z,7.93
2022-09-29T11:58:24.207Z,9.90
2022-09-29T12:01:14.067Z,8.97
2022-09-29T12:03:43.436Z,8.90
2022-09-29T12:06:25.284Z,8.40
2022-09-29T12:08:58.054Z,9.40
2022-09-29T12:11:54.688Z,9.27
2022-09-29T12:14:37.808Z,8.33
2022-09-29T12:17:12.724Z,8.87
2022-09-29T12:19:40.214Z,8.43
2022-09-29T12:22:09.278Z,9.00
2022-09-29T12:24:43.253Z,8.50
2022-09-29T12:27:21.635Z,9.20
2022-09-29T12:29:53.357Z,9.10
2022-09-29T12:32:28.625Z,9.30
2022-09-29T12:34:59.735Z,9.37
2022-09-29T12:37:31.069Z,9.77
2022-09-29T12:40:32.920Z,10.00
2022-09-29T12:42:59.265Z,11.53
2022-09-29T12:45:32.866Z,12.67
2022-09-29T12:48:26.062Z,13.00
2022-09-29T12:51:11.199Z,12.57
2022-09-29T12:53:39.989Z,10.70
2022-09-29T12:56:10.290Z,9.67
2022-09-29T12:58:42.691Z,10.10
2022-09-29T13:01:23.671Z,9.17
2022-09-29T13:04:11.179Z,9.40
2022-09-29T13:06:58.773Z,9.90
2022-09-29T13:09:32.587Z,9.00
2022-09-29T13:11:58.945Z,8.50
2022-09-29T13:14:34.891Z,10.63
2022-09-29T13:17:01.720Z,28.33
2022-09-29T13:19:56.809Z,6.73
2022-09-29T13:22:27.066Z,6.90
2022-09-29T13:25:03.547Z,6.50
2022-09-29T13:27:30.990Z,7.27
2022-09-29T13:30:01.264Z,7.13
2022-09-29T13:32:28.111Z,7.73
2022-09-29T13:34:55.987Z,7.73
2022-09-29T13:37:23.729Z,7.67
2022-09-29T13:40:09.145Z,7.30
2022-09-29T13:42:39.940Z,7.57
2022-09-29T13:45:15.479Z,8.73
2022-09-29T13:47:45.781Z,8.30
2022-09-29T13:50:30.981Z,7.70
2022-09-29T13:53:17.254Z,9.17
2022-09-29T13:55:49.445Z,9.83
2022-09-29T13:58:26.154Z,9.60
2022-09-29T14:00:53.357Z,9.90
2022-09-29T14:03:22.828Z,9.67
2022-09-29T14:05:53.518Z,10.47
2022-09-29T14:08:23.608Z,9.80
2022-09-29T14:10:54.551Z,11.07
2022-09-29T14:13:26.987Z,10.57
2022-09-29T14:16:12.291Z,10.37
2022-09-29T14:18:57.229Z,11.10
2022-09-29T14:21:42.494Z,10.67
2022-09-29T14:24:30.659Z,10.27
2022-09-29T14:27:17.331Z,10.63
2022-09-29T14:29:47.410Z,11.37
2022-09-29T14:32:18.177Z,10.50
2022-09-29T14:34:45.158Z,11.53
2022-09-29T14:37:16.531Z,10.40
2022-09-29T14:40:03.169Z,10.73
2022-09-29T14:42:29.988Z,10.60
2022-09-29T14:45:14.851Z,10.33
2022-09-29T14:48:15.124Z,11.60
2022-09-29T14:51:12.339Z,10.37
2022-09-29T14:53:50.041Z,10.83
2022-09-29T14:56:35.230Z,10.67
2022-09-29T14:59:10.970Z,9.70
2022-09-29T15:01:39.092Z,9.97
2022-09-29T15:04:07.237Z,10.03
2022-09-29T15:06:33.634Z,10.40
2022-09-29T15:09:20.610Z,10.80
2022-09-29T15:12:02.397Z,10.47
2022-09-29T15:14:30.644Z,10.13
2022-09-29T15:17:00.052Z,9.77
2022-09-29T15:19:26.435Z,10.40
2022-09-29T15:21:59.972Z,9.80
2022-09-29T15:24:32.465Z,10.30
2022-09-29T15:27:03.571Z,9.00
2022-09-29T15:29:30.474Z,9.57
2022-09-29T15:31:56.894Z,9.23
2022-09-29T15:34:25.384Z,8.97
2022-09-29T15:36:53.508Z,9.63
2022-09-29T15:39:32.105Z,9.50
2022-09-29T15:42:13.966Z,9.07
2022-09-29T15:44:45.828Z,9.90
2022-09-29T15:47:19.902Z,12.00
2022-09-29T15:49:49.351Z,13.77
2022-09-29T15:52:17.678Z,11.33
2022-09-29T15:54:47.816Z,8.40
2022-09-29T15:57:47.174Z,8.47
2022-09-29T16:00:33.839Z,9.30
2022-09-29T16:03:10.111Z,9.37
2022-09-29T16:05:40.280Z,8.93
2022-09-29T16:08:15.119Z,9.57
2022-09-29T16:11:02.177Z,8.63
2022-09-29T16:13:33.502Z,10.57
2022-09-29T16:16:02.459Z,9.63
2022-09-29T16:18:37.022Z,9.23
2022-09-29T16:21:09.140Z,10.47
2022-09-29T16:23:48.900Z,9.73
2022-09-29T16:26:18.139Z,9.33
2022-09-29T16:29:02.402Z,10.00
2022-09-29T16:31:30.242Z,10.53
2022-09-29T16:34:00.560Z,10.33
2022-09-29T16:36:28.741Z,9.90
2022-09-29T16:38:55.526Z,27.40
2022-09-29T16:41:36.482Z,42.70
2022-09-29T16:44:10.645Z,11.80
2022-09-29T16:46:45.524Z,9.87
2022-09-29T16:49:16.438Z,10.47
2022-09-29T16:51:46.671Z,9.43
2022-09-29T16:54:15.643Z,10.23
2022-09-29T16:56:44.264Z,8.80
2022-09-29T16:59:12.520Z,10.93
2022-09-29T17:01:41.186Z,10.67
2022-09-29T17:04:08.489Z,8.93
2022-09-29T17:06:35.262Z,9.30
2022-09-29T17:09:03.227Z,10.73
2022-09-29T17:11:29.758Z,10.57
2022-09-29T17:13:59.041Z,10.07
2022-09-29T17:16:26.196Z,10.50
2022-09-29T17:18:53.707Z,10.57
2022-09-29T17:21:20.537Z,11.30
2022-09-29T17:23:46.944Z,11.77
2022-09-29T17:26:41.740Z,10.83
2022-09-29T17:29:08.078Z,10.87
2022-09-29T17:31:34.492Z,11.37
2022-09-29T17:34:02.462Z,11.30
2022-09-29T17:36:29.223Z,10.63
2022-09-29T17:38:55.791Z,11.57
2022-09-29T17:41:22.770Z,11.07
2022-09-29T17:43:50.919Z,10.70
2022-09-29T17:46:17.377Z,12.53
2022-09-29T17:48:43.813Z,12.53
2022-09-29T17:51:12.270Z,12.47
2022-09-29T17:53:38.739Z,12.80
2022-09-29T17:56:05.320Z,12.20
2022-09-29T17:58:31.681Z,11.90
2022-09-29T18:00:58.217Z,24.90
2022-09-29T18:03:25.038Z,19.27
2022-09-29T18:05:56.944Z,13.13
2022-09-29T18:08:25.490Z,11.87
2022-09-29T18:10:52.596Z,11.40
2022-09-29T18:13:19.509Z,11.33
2022-09-29T18:15:46.967Z,12.03
2022-09-29T18:18:18.109Z,10.43
2022-09-29T18:20:50.181Z,12.10
2022-09-29T18:23:17.398Z,10.93
2022-09-29T18:25:47.731Z,11.53
2022-09-29T18:28:17.550Z,10.97
2022-09-29T18:30:45.374Z,10.50
2022-09-29T18:33:13.361Z,11.77
2022-09-29T18:35:41.500Z,11.50
2022-09-29T18:38:08.219Z,11.60
2022-09-29T18:40:35.247Z,11.83
2022-09-29T18:43:02.037Z,10.77
2022-09-29T18:45:29.840Z,10.07
2022-09-29T18:47:59.914Z,10.87
2022-09-29T18:50:27.710Z,11.33
2022-09-29T18:52:54.605Z,11.27
2022-09-29T18:55:23.984Z,11.57
2022-09-29T18:57:50.840Z,16.97
2022-09-29T19:00:18.456Z,14.40
2022-09-29T19:02:45.537Z,12.40
2022-09-29T19:05:17.676Z,11.67
2022-09-29T19:07:48.828Z,11.40
2022-09-29T19:10:16.644Z,11.03
2022-09-29T19:12:48.445Z,11.57
2022-09-29T19:15:16.487Z,10.27
2022-09-29T19:17:43.416Z,10.60
2022-09-29T19:20:10.922Z,10.30
2022-09-29T19:22:42.148Z,10.40
2022-09-29T19:25:18.836Z,10.30
2022-09-29T19:27:45.487Z,11.13
2022-09-29T19:30:12.963Z,10.20
2022-09-29T19:32:39.354Z,10.63
2022-09-29T19:35:07.067Z,9.43
2022-09-29T19:37:33.719Z,9.83
2022-09-29T19:40:00.157Z,10.17
2022-09-29T19:42:26.957Z,8.83
2022-09-29T19:44:53.425Z,9.13
2022-09-29T19:47:19.980Z,9.43
2022-09-29T19:49:46.361Z,8.50
2022-09-29T19:52:12.760Z,8.47
2022-09-29T19:54:39.814Z,8.23
2022-09-29T19:57:08.526Z,8.00
2022-09-29T19:59:37.041Z,5.87
2022-09-29T20:02:05.578Z,6.43
2022-09-29T20:04:33.360Z,6.47
2022-09-29T20:06:59.818Z,6.60
2022-09-29T20:09:26.625Z,6.37
2022-09-29T20:11:53.425Z,6.73
2022-09-29T20:14:23.317Z,6.33
2022-09-29T20:16:50.866Z,6.07
2022-09-29T20:19:18.711Z,5.57
2022-09-29T20:21:46.264Z,5.73
2022-09-29T20:24:14.318Z,5.47
2022-09-29T20:26:41.403Z,4.47
2022-09-29T20:29:08.431Z,5.07
2022-09-29T20:31:38.427Z,5.50
2022-09-29T20:34:05.805Z,5.00
2022-09-29T20:36:32.450Z,5.70
2022-09-29T20:38:58.794Z,4.63
2022-09-29T20:41:25.252Z,4.90
2022-09-29T20:43:55.455Z,8.03
2022-09-29T20:46:27.216Z,6.57
2022-09-29T20:48:55.128Z,5.90
2022-09-29T20:51:21.997Z,5.73
2022-09-29T20:53:53.178Z,5.70
2022-09-29T20:56:19.830Z,5.57
2022-09-29T20:58:47.488Z,5.40
2022-09-29T21:01:18.835Z,5.20
2022-09-29T21:03:52.545Z,5.40
2022-09-29T21:06:22.617Z,4.83
2022-09-29T21:08:48.967Z,5.27
2022-09-29T21:11:15.673Z,4.60
2022-09-29T21:13:42.548Z,5.07
2022-09-29T21:16:09.278Z,4.73
2022-09-29T21:18:35.686Z,4.57
2022-09-29T21:21:03.912Z,4.20
2022-09-29T21:23:31.355Z,4.43
2022-09-29T21:25:58.595Z,3.77
2022-09-29T21:28:26.905Z,4.20
2022-09-29T21:31:03.574Z,3.97
2022-09-29T21:33:30.242Z,3.87
2022-09-29T21:36:00.897Z,3.80
2022-09-29T21:38:30.245Z,3.67
2022-09-29T21:41:03.802Z,3.20
2022-09-29T21:43:30.802Z,3.53
2022-09-29T21:46:01.231Z,3.17
2022-09-29T21:48:27.791Z,3.10
2022-09-29T21:51:00.754Z,3.00
2022-09-29T21:53:27.101Z,3.70
2022-09-29T21:55:53.415Z,3.20
2022-09-29T21:58:19.724Z,2.63
2022-09-29T22:00:47.438Z,3.07
2022-09-29T22:03:15.628Z,3.43
2022-09-29T22:05:42.281Z,2.63
2022-09-29T22:08:12.171Z,3.40
2022-09-29T22:10:40.996Z,3.30
2022-09-29T22:13:07.323Z,3.20
2022-09-29T22:15:34.037Z,3.30
2022-09-29T22:18:00.362Z,3.50
2022-09-29T22:20:26.711Z,3.17
2022-09-29T22:22:53.134Z,3.97
2022-09-29T22:25:19.493Z,3.47
2022-09-29T22:27:45.823Z,3.70
2022-09-29T22:30:12.480Z,3.57
2022-09-29T22:32:38.881Z,3.40
2022-09-29T22:35:05.282Z,3.50
2022-09-29T22:37:31.635Z,3.40
2022-09-29T22:39:58.011Z,3.47
2022-09-29T22:42:24.355Z,3.50
2022-09-29T22:44:50.698Z,4.20
2022-09-29T22:47:17.146Z,4.43
2022-09-29T22:49:43.490Z,4.70
2022-09-29T22:52:10.111Z,4.20
2022-09-29T22:54:36.458Z,4.07
2022-09-29T22:57:02.809Z,4.57
2022-09-29T22:59:29.144Z,4.30
2022-09-29T23:01:55.637Z,4.43
2022-09-29T23:04:22.224Z,5.10
2022-09-29T23:06:48.593Z,4.77
2022-09-29T23:09:15.008Z,4.97
2022-09-29T23:11:41.901Z,5.37
2022-09-29T23:14:08.412Z,5.13
2022-09-29T23:16:34.836Z,4.83
2022-09-29T23:19:01.259Z,5.10
2022-09-29T23:21:27.932Z,4.93
2022-09-29T23:23:55.952Z,5.00
2022-09-29T23:26:22.797Z,5.70
2022-09-29T23:28:49.195Z,5.37
2022-09-29T23:31:15.709Z,5.53
2022-09-29T23:33:42.182Z,4.77
2022-09-29T23:36:09.831Z,5.20
2022-09-29T23:38:56.198Z,5.63
2022-09-29T23:41:24.217Z,5.43
2022-09-29T23:43:50.540Z,6.13
2022-09-29T23:46:16.938Z,6.07
2022-09-29T23:48:43.307Z,6.50
2022-09-29T23:51:09.627Z,5.30
2022-09-29T23:53:35.988Z,5.90
2022-09-29T23:56:02.727Z,6.13
2022-09-29T23:58:29.299Z,6.47
